Time;durP1;ratioP1;P1;durP2;ratioP2;P2;SDS_P1;SDS_P2;PMS_P1;PMS_P2;Temp;Humidity;BMP_temperature;BMP_pressure;BME280_temperature;BME280_humidity;BME280_pressure;Samples;Min_cycle;Max_cycle;Signal;HPM_P1;HPM_P2
2024/02/03 00:03:53;;;;;;;3.90;3.60;;;4.50;99.90;;;4.97;83.56;99169.56;10358816;28;20237;-59
2024/02/03 00:08:56;;;;;;;5.40;4.37;;;4.40;99.90;;;4.88;84.22;99170.28;10362756;28;20225;-61
2024/02/03 00:13:59;;;;;;;4.53;4.13;;;4.30;99.90;;;4.76;85.10;99162.38;10365383;28;20238;-60
2024/02/03 00:19:03;;;;;;;5.03;4.53;;;4.20;99.90;;;4.64;85.63;99162.03;10366112;28;20230;-61
2024/02/03 00:24:07;;;;;;;6.87;4.97;;;4.10;99.90;;;4.57;86.87;99163.78;10363091;28;20662;-60
2024/02/03 00:29:10;;;;;;;5.10;4.63;;;4.00;99.90;;;4.44;87.15;99170.13;10362310;28;20711;-60
2024/02/03 00:34:15;;;;;;;4.73;4.30;;;3.90;99.90;;;4.34;87.81;99169.94;10367784;28;20237;-60
2024/02/03 00:39:18;;;;;;;4.43;4.13;;;3.70;99.90;;;4.29;88.36;99166.03;10365671;28;20222;-60
2024/02/03 00:44:21;;;;;;;3.67;3.47;;;3.70;99.90;;;4.27;88.85;99168.41;10361182;28;20231;-60
2024/02/03 00:49:25;;;;;;;4.00;3.70;;;3.70;99.90;;;4.23;89.21;99167.94;10364993;28;20237;-61
2024/02/03 00:54:29;;;;;;;4.30;3.90;;;3.60;99.90;;;4.17;90.14;99179.94;10366384;28;20257;-60
2024/02/03 00:59:32;;;;;;;3.63;3.40;;;3.60;99.90;;;4.10;90.83;99175.91;10368288;28;20240;-60
2024/02/03 01:04:36;;;;;;;4.10;3.80;;;3.50;99.90;;;3.95;90.95;99164.19;10364787;28;20230;-60
2024/02/03 01:09:40;;;;;;;3.83;3.53;;;3.40;99.90;;;3.90;91.00;99168.78;10364762;28;20242;-61
2024/02/03 01:14:44;;;;;;;3.87;3.57;;;3.30;99.90;;;3.79;91.16;99181.94;10362933;28;20713;-60
2024/02/03 01:19:48;;;;;;;4.10;3.80;;;3.20;99.90;;;3.83;91.57;99181.50;10358624;28;20231;-60
2024/02/03 01:24:52;;;;;;;4.50;4.10;;;3.20;99.90;;;3.78;92.13;99187.75;10363183;28;20591;-60
2024/02/03 01:29:56;;;;;;;5.20;3.67;;;3.10;99.90;;;3.63;93.29;99181.06;10359394;28;20287;-60
2024/02/03 01:35:00;;;;;;;4.37;3.97;;;2.90;99.90;;;3.43;94.07;99176.44;10362131;28;20226;-60
2024/02/03 01:40:05;;;;;;;4.07;3.77;;;2.70;99.90;;;3.29;94.64;99178.41;10352767;28;20231;-62
2024/02/03 01:45:08;;;;;;;4.43;4.13;;;2.70;99.90;;;3.27;95.38;99168.88;10352883;28;20611;-60
2024/02/03 01:50:13;;;;;;;4.10;3.80;;;2.70;99.90;;;3.31;94.75;99170.97;10353431;28;20274;-60
2024/02/03 01:55:18;;;;;;;4.30;4.00;;;2.60;99.90;;;3.13;95.34;99154.78;10362437;28;20229;-60
2024/02/03 02:00:21;;;;;;;4.07;3.77;;;2.50;99.90;;;2.97;96.36;99158.91;10362780;28;20314;-60
2024/02/03 02:05:28;;;;;;;3.83;3.53;;;2.40;99.90;;;3.00;96.83;99150.03;10364144;28;20229;-60
2024/02/03 02:10:31;;;;;;;3.77;3.47;;;2.40;99.90;;;3.04;96.84;99147.13;10363757;28;20620;-60
2024/02/03 02:15:34;;;;;;;4.40;4.10;;;2.30;99.90;;;2.82;96.52;99155.66;10357497;28;20230;-60
2024/02/03 02:20:40;;;;;;;3.93;3.63;;;2.20;99.90;;;2.79;97.85;99162.91;10362328;28;20280;-60
2024/02/03 02:25:43;;;;;;;4.30;3.93;;;2.20;99.90;;;2.79;98.47;99156.22;10371229;28;20596;-60
2024/02/03 02:30:46;;;;;;;3.90;3.50;;;2.20;99.90;;;2.71;97.85;99155.38;10363897;28;20228;-60
2024/02/03 02:35:50;;;;;;;4.30;4.00;;;2.10;99.90;;;2.65;98.30;99157.25;10360975;28;20384;-60
2024/02/03 02:40:54;;;;;;;4.03;3.73;;;2.10;99.90;;;2.63;98.83;99163.78;10355996;28;20317;-60
2024/02/03 02:45:58;;;;;;;3.60;3.40;;;2.00;99.90;;;2.53;99.21;99157.56;10365280;28;20727;-60
2024/02/03 02:51:02;;;;;;;3.87;3.57;;;1.90;99.90;;;2.57;98.83;99157.13;10358364;28;20292;-60
2024/02/03 02:56:06;;;;;;;4.13;3.83;;;1.90;99.90;;;2.50;98.86;99163.16;10368991;28;20225;-60
2024/02/03 03:01:09;;;;;;;3.90;3.60;;;1.80;99.90;;;2.40;99.18;99157.81;10365891;28;20317;-60
2024/02/03 03:06:14;;;;;;;4.27;3.87;;;1.80;99.90;;;2.48;99.11;99152.00;10361523;28;20234;-61
2024/02/03 03:11:17;;;;;;;4.43;4.10;;;1.70;99.90;;;2.34;99.14;99162.19;10372664;28;20231;-61
2024/02/03 03:16:20;;;;;;;4.43;4.13;;;1.60;99.90;;;2.19;100.00;99154.75;10365930;28;20231;-60
2024/02/03 03:21:25;;;;;;;4.17;3.77;;;1.60;99.90;;;2.23;100.00;99176.16;10373921;28;20241;-60
2024/02/03 03:26:28;;;;;;;4.07;3.87;;;1.60;99.90;;;2.20;100.00;99169.16;10366378;28;20230;-61
2024/02/03 03:31:31;;;;;;;4.13;3.87;;;1.60;99.90;;;1.99;100.00;99164.25;10365467;28;20233;-62
2024/02/03 03:36:36;;;;;;;3.67;3.43;;;1.40;99.90;;;2.02;100.00;99173.06;10363762;28;20713;-62
2024/02/03 03:41:39;;;;;;;3.77;3.57;;;1.40;99.90;;;2.01;100.00;99161.19;10366056;28;20714;-61
2024/02/03 03:46:42;;;;;;;4.00;3.70;;;1.40;99.90;;;2.07;100.00;99162.59;10368869;28;21855;-60
2024/02/03 03:51:47;;;;;;;4.10;3.77;;;1.50;99.90;;;2.04;100.00;99163.16;10366923;28;20225;-62
2024/02/03 03:56:50;;;;;;;3.70;3.50;;;1.50;99.90;;;2.04;100.00;99145.50;10366571;28;20660;-62
2024/02/03 04:01:53;;;;;;;3.80;3.60;;;1.40;99.90;;;2.02;100.00;99141.91;10367362;28;20244;-60
2024/02/03 04:06:57;;;;;;;4.00;3.70;;;1.30;99.90;;;1.96;100.00;99152.22;10368458;28;20340;-60
2024/02/03 04:12:00;;;;;;;4.10;3.80;;;1.30;99.90;;;1.86;100.00;99164.53;10370603;28;20241;-62
2024/02/03 04:17:04;;;;;;;4.53;4.20;;;1.30;99.90;;;1.94;100.00;99172.94;10354474;28;20222;-62
2024/02/03 04:22:11;;;;;;;4.57;4.27;;;1.30;99.90;;;1.88;100.00;99163.06;10360978;28;20230;-62
2024/02/03 04:27:14;;;;;;;3.87;3.57;;;1.20;99.90;;;1.84;100.00;99171.00;10358275;28;20236;-63
2024/02/03 04:32:17;;;;;;;4.47;4.17;;;1.10;99.90;;;1.67;100.00;99176.69;10362634;28;20672;-62
2024/02/03 04:37:22;;;;;;;4.27;3.97;;;1.00;99.90;;;1.55;100.00;99170.28;10360775;28;20314;-63
2024/02/03 04:42:26;;;;;;;4.77;4.47;;;0.90;99.90;;;1.59;100.00;99172.41;10361004;28;20230;-62
2024/02/03 04:47:29;;;;;;;4.57;4.27;;;1.00;99.90;;;1.62;100.00;99175.25;10369845;28;20230;-62
2024/02/03 04:52:34;;;;;;;4.70;4.40;;;1.00;99.90;;;1.55;100.00;99177.84;10358686;28;20273;-61
2024/02/03 04:57:37;;;;;;;4.90;4.50;;;0.90;99.90;;;1.57;100.00;99186.44;10365757;28;20251;-61
2024/02/03 05:02:41;;;;;;;4.73;4.33;;;0.90;99.90;;;1.52;100.00;99180.91;10361040;28;20253;-62
2024/02/03 05:07:46;;;;;;;4.70;4.40;;;0.90;99.90;;;1.46;100.00;99181.81;10364468;28;20233;-62
2024/02/03 05:12:49;;;;;;;5.90;5.23;;;0.80;99.90;;;1.53;100.00;99182.69;10363300;28;21036;-61
2024/02/03 05:17:52;;;;;;;4.57;4.00;;;0.90;99.90;;;1.44;100.00;99168.16;10364357;28;20248;-62
2024/02/03 05:22:57;;;;;;;5.00;4.60;;;0.70;99.90;;;1.42;100.00;99172.13;10363045;28;20328;-60
2024/02/03 05:28:00;;;;;;;5.07;4.77;;;0.80;99.90;;;1.39;100.00;99177.72;10360374;28;20237;-61
2024/02/03 05:33:04;;;;;;;6.30;4.53;;;0.70;99.90;;;1.40;100.00;99178.59;10322259;28;20234;-61
2024/02/03 05:38:09;;;;;;;5.27;4.87;;;0.70;99.90;;;1.33;100.00;99177.91;10317169;28;20314;-62
2024/02/03 05:43:12;;;;;;;4.63;4.33;;;0.70;99.90;;;1.48;100.00;99182.88;10325426;28;20599;-61
2024/02/03 05:48:15;;;;;;;4.70;4.30;;;0.80;99.90;;;1.48;100.00;99191.34;10356203;28;20229;-63
2024/02/03 05:53:19;;;;;;;5.50;5.00;;;0.80;99.90;;;1.31;100.00;99179.34;10361807;28;21627;-62
2024/02/03 05:58:23;;;;;;;4.73;4.20;;;0.70;99.90;;;1.41;100.00;99178.78;10358897;28;20644;-61
2024/02/03 06:03:26;;;;;;;5.13;4.73;;;0.80;99.90;;;1.40;100.00;99183.63;10363472;28;20232;-63
2024/02/03 06:08:30;;;;;;;5.60;5.10;;;0.80;99.90;;;1.39;100.00;99192.81;10353568;28;20645;-61
2024/02/03 06:13:33;;;;;;;5.67;5.20;;;0.80;99.90;;;1.45;100.00;99185.06;10356095;28;20610;-62
2024/02/03 06:18:36;;;;;;;6.00;5.40;;;0.90;99.90;;;1.66;100.00;99190.03;10360422;28;21078;-62
2024/02/03 06:23:42;;;;;;;5.27;4.80;;;1.00;99.90;;;1.69;100.00;99187.84;10368632;28;20233;-63
2024/02/03 06:28:45;;;;;;;5.40;4.83;;;1.10;99.90;;;1.75;100.00;99188.53;10337593;28;20226;-62
2024/02/03 06:33:48;;;;;;;5.60;5.10;;;1.10;99.90;;;1.84;100.00;99181.09;10363272;28;20258;-62
2024/02/03 06:38:52;;;;;;;5.47;5.07;;;1.20;99.90;;;1.87;100.00;99180.56;10360939;28;20286;-61
2024/02/03 06:43:55;;;;;;;6.50;5.87;;;1.30;99.90;;;1.99;100.00;99184.44;10368164;28;20249;-63
2024/02/03 06:48:59;;;;;;;6.83;6.13;;;1.50;99.90;;;2.12;100.00;99189.19;10369779;28;20255;-63
2024/02/03 06:54:03;;;;;;;5.87;5.47;;;1.60;99.90;;;2.18;100.00;99195.84;10373438;28;20241;-63
2024/02/03 06:59:07;;;;;;;7.17;6.47;;;1.60;99.90;;;2.30;100.00;99206.38;10376655;28;20233;-63
2024/02/03 07:04:10;;;;;;;9.53;8.50;;;1.70;99.90;;;2.35;100.00;99204.38;10374200;28;20319;-62
2024/02/03 07:09:15;;;;;;;9.50;8.60;;;1.90;99.90;;;2.54;100.00;99205.66;10378453;28;20225;-62
2024/02/03 07:14:18;;;;;;;12.07;10.87;;;2.10;99.90;;;2.85;100.00;99207.38;10380915;28;20260;-61
2024/02/03 07:19:21;;;;;;;10.53;9.43;;;2.40;99.90;;;3.20;100.00;99201.78;10384566;28;20599;-61
2024/02/03 07:24:26;;;;;;;11.80;9.60;;;2.70;99.90;;;3.38;100.00;99203.78;10376891;28;20234;-63
2024/02/03 07:29:29;;;;;;;10.30;9.27;;;2.90;99.90;;;3.61;100.00;99202.03;10370584;28;20242;-63
2024/02/03 07:34:32;;;;;;;12.60;11.10;;;3.20;99.90;;;3.90;100.00;99204.19;10362357;28;20229;-61
2024/02/03 07:39:37;;;;;;;11.37;10.27;;;3.60;99.90;;;4.32;100.00;99196.72;10364245;28;20360;-60
2024/02/03 07:44:41;;;;;;;13.10;10.07;;;3.80;99.90;;;4.40;100.00;99192.44;10362703;28;20653;-62
2024/02/03 07:49:44;;;;;;;12.20;10.90;;;3.90;99.90;;;4.50;100.00;99183.41;10358843;28;20226;-62
2024/02/03 07:54:49;;;;;;;12.17;10.87;;;4.00;99.90;;;4.70;100.00;99182.91;10362803;28;20241;-63
2024/02/03 07:59:52;;;;;;;16.47;12.80;;;4.20;99.90;;;4.90;100.00;99181.47;10366081;28;20721;-63
2024/02/03 08:04:55;;;;;;;12.73;11.53;;;4.40;99.90;;;5.13;100.00;99183.78;10359647;28;20232;-64
2024/02/03 08:10:00;;;;;;;13.50;12.10;;;4.60;99.90;;;5.27;100.00;99175.91;10366836;28;20222;-64
2024/02/03 08:15:04;;;;;;;14.37;13.03;;;4.80;99.90;;;5.45;100.00;99175.91;10332743;28;20364;-64
2024/02/03 08:20:09;;;;;;;13.53;12.10;;;4.90;99.90;;;5.65;100.00;99176.22;10360004;28;20831;-64
2024/02/03 08:25:14;;;;;;;13.30;11.90;;;5.00;99.90;;;5.81;100.00;99182.03;10366030;28;20241;-62
2024/02/03 08:30:18;;;;;;;12.63;11.23;;;5.20;99.90;;;5.86;100.00;99188.41;10307691;28;20285;-62
2024/02/03 08:35:21;;;;;;;11.93;10.50;;;5.30;99.90;;;5.99;100.00;99188.00;10323312;28;21045;-62
2024/02/03 08:40:25;;;;;;;12.47;11.13;;;5.50;99.90;;;6.19;100.00;99181.41;10325619;28;20223;-61
2024/02/03 08:45:29;;;;;;;12.40;11.10;;;5.50;99.90;;;6.32;100.00;99177.66;10327032;28;20239;-64
2024/02/03 08:50:32;;;;;;;13.40;12.00;;;5.70;99.90;;;6.40;100.00;99180.00;10318823;28;20242;-64
2024/02/03 08:55:36;;;;;;;15.03;12.73;;;5.80;99.90;;;6.66;100.00;99190.97;10317073;28;20235;-62
2024/02/03 09:00:40;;;;;;;13.00;11.80;;;6.00;99.90;;;6.82;100.00;99195.84;10316544;28;20226;-62
2024/02/03 09:05:43;;;;;;;11.47;10.10;;;6.20;99.90;;;7.01;100.00;99201.00;10319885;28;20242;-61
2024/02/03 09:10:48;;;;;;;10.40;9.30;;;6.30;99.90;;;7.01;100.00;99190.81;10315658;28;20233;-65
2024/02/03 09:15:51;;;;;;;10.80;9.70;;;6.40;99.90;;;7.13;100.00;99207.19;10318109;28;20231;-64
2024/02/03 09:20:54;;;;;;;11.30;10.17;;;6.50;99.90;;;7.08;100.00;99212.63;10319166;28;20222;-65
2024/02/03 09:26:01;;;;;;;9.93;8.90;;;6.40;99.90;;;7.18;100.00;99211.06;10316255;28;20230;-64
2024/02/03 09:31:05;;;;;;;9.03;8.13;;;6.50;99.90;;;7.22;100.00;99213.13;10297218;28;20219;-64
2024/02/03 09:36:09;;;;;;;8.30;7.50;;;6.40;99.90;;;7.12;100.00;99205.38;10312931;28;20668;-65
2024/02/03 09:41:14;;;;;;;8.87;7.90;;;6.40;99.90;;;7.09;100.00;99205.13;10317564;28;20240;-64
2024/02/03 09:46:17;;;;;;;7.23;6.63;;;6.40;99.90;;;7.26;100.00;99211.75;10306754;28;20231;-64
2024/02/03 09:51:21;;;;;;;6.73;6.10;;;6.50;99.90;;;7.36;100.00;99216.03;10320162;28;20253;-64
2024/02/03 09:56:26;;;;;;;7.07;6.47;;;6.60;99.90;;;7.30;100.00;99205.31;10318766;28;20246;-64
2024/02/03 10:01:29;;;;;;;8.23;7.40;;;6.50;99.90;;;7.39;100.00;99209.59;10329192;28;20223;-65
2024/02/03 10:06:32;;;;;;;7.73;7.03;;;6.60;99.90;;;7.28;100.00;99214.44;10322464;28;20325;-64
2024/02/03 10:11:40;;;;;;;7.47;6.10;;;6.60;99.90;;;7.40;100.00;99215.56;10321468;28;20318;-64
2024/02/03 10:16:44;;;;;;;6.13;5.63;;;6.60;99.90;;;7.45;100.00;99216.88;10308915;28;20226;-63
2024/02/03 10:21:48;;;;;;;5.60;5.20;;;6.70;99.90;;;7.52;100.00;99213.22;10303799;28;20319;-64
2024/02/03 10:27:03;;;;;;;5.17;4.67;;;6.70;99.90;;;7.71;100.00;99205.63;10316161;28;20631;-63
2024/02/03 10:32:07;;;;;;;5.63;5.23;;;6.90;99.90;;;7.57;100.00;99209.47;10311860;28;20233;-65
2024/02/03 10:37:10;;;;;;;5.57;4.80;;;6.80;99.90;;;7.76;100.00;99194.22;10306056;28;20795;-64
2024/02/03 10:42:21;;;;;;;5.73;5.13;;;6.90;99.90;;;7.82;100.00;99189.66;10303538;28;20614;-64
2024/02/03 10:47:25;;;;;;;5.90;5.40;;;7.00;99.90;;;8.06;100.00;99188.38;10306920;28;20691;-65
2024/02/03 10:52:30;;;;;;;5.30;4.90;;;7.10;99.90;;;7.94;100.00;99183.09;10313541;28;20235;-65
2024/02/03 10:57:35;;;;;;;4.77;4.37;;;7.10;99.90;;;8.18;100.00;99178.38;10305886;28;20238;-64
2024/02/03 11:02:39;;;;;;;5.17;4.77;;;7.30;99.90;;;8.40;100.00;99164.25;10310056;28;20234;-64
2024/02/03 11:07:45;;;;;;;5.87;5.30;;;7.40;99.90;;;8.40;100.00;99164.25;10309204;28;20479;-64
2024/02/03 11:12:50;;;;;;;5.47;4.97;;;7.50;99.90;;;8.36;100.00;99164.72;10372938;23;20244;-63
2024/02/03 11:17:54;;;;;;;5.32;4.82;;;7.60;99.90;;;8.44;99.99;99161.22;10385189;28;20226;-63
2024/02/03 11:22:58;;;;;;;5.85;5.43;;;7.50;99.90;;;8.53;99.20;99158.56;10356141;28;20237;-63
2024/02/03 11:28:05;;;;;;;5.82;5.32;;;7.60;99.90;;;8.50;98.99;99143.91;10348623;28;20241;-66
2024/02/03 11:33:08;;;;;;;6.05;5.55;;;7.60;99.90;;;8.63;99.74;99142.38;10345864;28;21040;-62
2024/02/03 11:38:12;;;;;;;5.82;5.32;;;7.80;99.90;;;8.87;97.91;99139.38;10350173;28;20230;-63
2024/02/03 11:43:19;;;;;;;5.20;4.90;;;8.10;99.90;;;8.94;96.89;99139.13;10350903;28;20226;-63
2024/02/03 11:48:22;;;;;;;5.70;5.20;;;8.10;99.90;;;8.97;96.35;99135.94;10349743;28;20226;-62
2024/02/03 11:53:26;;;;;;;5.65;5.15;;;8.00;99.90;;;9.15;94.88;99136.56;10353721;28;20998;-63
2024/02/03 11:58:30;;;;;;;5.45;5.05;;;8.30;99.90;;;9.24;93.97;99132.22;10348051;28;20266;-63
2024/02/03 12:03:35;;;;;;;4.80;4.40;;;8.40;99.90;;;9.24;93.66;99132.22;10349240;28;20269;-63
2024/02/03 12:08:39;;;;;;;4.78;4.38;;;8.40;99.90;;;9.21;92.45;99131.97;10350194;28;20225;-63
2024/02/03 12:13:45;;;;;;;5.60;5.10;;;8.30;99.90;;;9.15;92.83;99126.38;10347596;28;20238;-62
2024/02/03 12:18:48;;;;;;;5.18;4.68;;;8.40;99.90;;;9.14;93.21;99119.50;10347780;28;20222;-62
2024/02/03 12:23:51;;;;;;;4.88;4.47;;;8.40;99.90;;;9.23;90.89;99117.69;10350907;28;20235;-62
2024/02/03 12:28:56;;;;;;;4.88;4.47;;;8.50;99.90;;;9.26;91.27;99123.03;10349422;28;20229;-63
2024/02/03 12:33:59;;;;;;;4.07;3.67;;;8.50;99.90;;;9.34;92.11;99114.38;10344946;28;20272;-62
2024/02/03 12:39:03;;;;;;;4.15;3.80;;;8.50;99.90;;;9.41;90.94;99116.66;10347694;28;20415;-63
2024/02/03 12:44:08;;;;;;;4.05;3.75;;;8.60;99.90;;;9.72;88.69;99097.81;10346115;28;20238;-63
2024/02/03 12:49:11;;;;;;;3.97;3.67;;;8.90;99.90;;;9.75;87.37;99088.75;10346713;28;20230;-63
2024/02/03 12:54:14;;;;;;;3.50;3.30;;;9.00;99.90;;;9.68;88.14;99084.81;10354630;28;20240;-63
2024/02/03 12:59:19;;;;;;;4.13;3.83;;;8.90;99.90;;;9.75;87.35;99080.19;10346536;28;22007;-63
2024/02/03 13:04:22;;;;;;;3.60;3.30;;;8.90;99.90;;;9.95;86.52;99069.91;10348078;28;20246;-63
2024/02/03 13:09:26;;;;;;;4.03;3.80;;;9.10;99.90;;;9.93;86.40;99081.69;10350802;28;20237;-64
2024/02/03 13:14:31;;;;;;;4.05;3.70;;;9.10;99.90;;;9.78;87.26;99078.78;10344095;28;20674;-63
2024/02/03 13:19:34;;;;;;;3.80;3.50;;;9.00;99.90;;;9.77;88.70;99071.00;10344999;28;20237;-62
2024/02/03 13:24:37;;;;;;;4.05;3.75;;;9.00;99.90;;;9.74;88.72;99080.97;10346529;28;20226;-63
2024/02/03 13:29:42;;;;;;;4.38;3.97;;;8.90;99.90;;;9.64;87.55;99076.78;10344545;28;20234;-63
2024/02/03 13:34:45;;;;;;;4.10;3.80;;;8.80;99.90;;;9.61;89.38;99074.88;10345088;28;20233;-63
2024/02/03 13:39:49;;;;;;;4.05;3.65;;;8.80;99.90;;;9.70;87.97;99070.53;10346083;28;20235;-63
2024/02/03 13:44:53;;;;;;;3.70;3.40;;;8.80;99.90;;;9.75;87.58;99068.31;10341794;28;20218;-63
2024/02/03 13:49:56;;;;;;;3.60;3.30;;;8.90;99.90;;;9.80;88.24;99061.91;10349017;28;20239;-64
2024/02/03 13:55:00;;;;;;;3.25;2.92;;;9.00;99.90;;;9.75;87.84;99068.31;10349249;28;20287;-63
2024/02/03 14:00:07;;;;;;;1.83;1.73;;;9.00;99.90;;;9.82;86.86;99068.06;10343732;28;20238;-65
2024/02/03 14:05:10;;;;;;;1.60;1.60;;;9.00;99.90;;;9.94;86.16;99063.03;10346265;28;20249;-64
2024/02/03 14:10:14;;;;;;;2.15;2.05;;;9.10;99.90;;;9.98;85.60;99066.69;10343058;28;20230;-64
2024/02/03 14:15:18;;;;;;;1.98;1.90;;;9.20;99.90;;;10.06;85.19;99055.44;10345088;28;20226;-64
2024/02/03 14:20:21;;;;;;;1.92;1.83;;;9.30;99.90;;;10.17;84.54;99046.94;10346234;28;20250;-64
2024/02/03 14:25:25;;;;;;;2.10;2.00;;;9.40;99.90;;;10.23;84.33;99049.06;10345277;28;20230;-64
2024/02/03 14:30:30;;;;;;;1.83;1.73;;;9.40;99.90;;;10.24;83.24;99050.84;10343818;28;20356;-64
2024/02/03 14:35:33;;;;;;;2.20;2.10;;;9.50;99.90;;;10.26;84.73;99050.19;10341816;28;20234;-64
2024/02/03 14:40:37;;;;;;;1.88;1.80;;;9.50;99.90;;;10.24;83.88;99049.19;10345475;28;20234;-64
2024/02/03 14:45:41;;;;;;;1.92;1.83;;;9.50;99.90;;;10.28;83.30;99048.69;10343877;28;20583;-64
2024/02/03 14:50:45;;;;;;;1.90;1.80;;;9.60;99.90;;;10.24;84.76;99048.28;10344259;28;20222;-64
2024/02/03 14:55:48;;;;;;;1.45;1.45;;;9.50;99.90;;;10.28;84.09;99051.25;10344369;28;20241;-64
2024/02/03 15:00:54;;;;;;;1.85;1.75;;;9.40;99.90;;;10.19;84.74;99052.16;10346183;28;20231;-64
2024/02/03 15:05:57;;;;;;;2.20;2.10;;;9.50;99.90;;;10.13;83.67;99050.03;10352049;28;20234;-64
2024/02/03 15:11:01;;;;;;;1.45;1.45;;;9.50;99.90;;;10.22;83.22;99042.19;10351162;28;20950;-63
2024/02/03 15:16:07;;;;;;;1.60;1.50;;;9.40;99.90;;;10.26;83.93;99044.19;10357024;28;20234;-65
2024/02/03 15:21:10;;;;;;;1.90;1.80;;;9.40;99.90;;;10.23;83.57;99044.84;10359576;28;20241;-64
2024/02/03 15:26:13;;;;;;;1.83;1.73;;;9.40;99.90;;;10.08;84.13;99043.69;10358414;28;20312;-64
2024/02/03 15:31:18;;;;;;;1.80;1.80;;;9.30;99.90;;;10.14;83.33;99033.94;10360913;28;20230;-64
2024/02/03 15:36:21;;;;;;;2.20;2.10;;;9.30;99.90;;;9.98;84.07;99036.06;10355291;28;20638;-63
2024/02/03 15:41:25;;;;;;;2.60;2.40;;;9.20;99.90;;;9.86;82.95;99035.97;10364369;28;20221;-64
2024/02/03 15:46:29;;;;;;;2.92;2.72;;;9.20;99.90;;;9.68;85.08;99043.09;10367996;28;20237;-64
2024/02/03 15:51:45;;;;;;;3.25;3.05;;;9.00;99.90;;;9.58;84.31;99028.69;10359417;28;20241;-65
2024/02/03 15:56:49;;;;;;;2.83;2.63;;;8.80;99.90;;;9.53;83.76;99030.00;10365343;28;20230;-65
2024/02/03 16:01:53;;;;;;;2.38;2.28;;;8.80;99.90;;;9.48;84.62;99033.84;10360454;28;20242;-64
2024/02/03 16:06:57;;;;;;;2.22;2.13;;;8.70;99.90;;;9.29;84.47;99033.13;10355126;28;20218;-64
2024/02/03 16:12:00;;;;;;;2.72;2.53;;;8.50;99.90;;;9.03;85.58;99027.69;10352641;28;20336;-63
2024/02/03 16:17:05;;;;;;;3.08;2.60;;;8.30;99.90;;;9.10;85.60;99033.28;10354560;28;20619;-64
2024/02/03 16:22:08;;;;;;;2.33;2.13;;;8.30;99.90;;;8.90;86.82;99027.47;10352716;28;20867;-65
2024/02/03 16:27:11;;;;;;;2.83;2.58;;;8.20;99.90;;;8.90;86.96;99026.53;10355264;28;20280;-63
2024/02/03 16:32:16;;;;;;;4.32;4.03;;;8.10;99.90;;;8.85;87.86;99043.13;10355372;28;20227;-64
2024/02/03 16:37:19;;;;;;;8.00;7.30;;;8.10;99.90;;;8.85;87.26;99036.38;10359013;28;20277;-64
2024/02/03 16:42:22;;;;;;;7.13;5.80;;;8.10;99.90;;;8.91;86.52;99047.06;10355359;28;20632;-65
2024/02/03 16:47:27;;;;;;;8.80;7.75;;;8.20;99.90;;;8.83;88.22;99048.09;10353824;28;20345;-63
2024/02/03 16:52:30;;;;;;;33.63;24.08;;;8.10;99.90;;;8.83;87.71;99044.66;10356373;28;20230;-64
2024/02/03 16:57:34;;;;;;;11.48;7.93;;;8.10;99.90;;;8.85;87.01;99038.94;10357491;28;20237;-64
2024/02/03 17:02:41;;;;;;;10.50;6.72;;;8.20;99.90;;;8.85;87.22;99049.13;10352720;28;20226;-64
2024/02/03 17:07:44;;;;;;;5.22;4.72;;;8.10;99.90;;;8.78;87.03;99041.72;10359988;28;20232;-64
2024/02/03 17:12:47;;;;;;;4.90;4.50;;;8.00;99.90;;;8.63;88.32;99031.16;10355447;28;20237;-62
2024/02/03 17:17:52;;;;;;;5.90;5.35;;;7.90;99.90;;;8.55;88.51;99050.88;10346533;28;20369;-64
2024/02/03 17:22:55;;;;;;;6.43;5.72;;;7.80;99.90;;;8.41;89.24;99048.81;10352302;28;20890;-63
2024/02/03 17:27:58;;;;;;;5.50;5.00;;;7.70;99.90;;;8.47;88.73;99063.75;10348999;28;20230;-64
2024/02/03 17:33:03;;;;;;;4.55;4.18;;;7.70;99.90;;;8.29;89.71;99057.94;10349794;28;20230;-63
2024/02/03 17:38:07;;;;;;;3.70;3.42;;;7.60;99.90;;;8.20;90.21;99063.16;10345863;28;20222;-64
2024/02/03 17:43:10;;;;;;;3.60;3.30;;;7.50;99.90;;;8.16;90.94;99055.13;10343583;28;20233;-64
2024/02/03 17:48:14;;;;;;;2.90;2.70;;;7.40;99.90;;;8.11;92.00;99055.63;10344259;28;20958;-64
2024/02/03 17:53:18;;;;;;;3.20;3.00;;;7.30;99.90;;;8.05;92.32;99067.81;10345982;28;20312;-64
2024/02/03 17:58:21;;;;;;;3.33;3.07;;;7.30;99.90;;;8.00;92.51;99058.88;10348497;28;20230;-64
2024/02/03 18:03:26;;;;;;;3.27;3.07;;;7.30;99.90;;;8.02;92.92;99070.09;10346946;28;20329;-64
2024/02/03 18:08:30;;;;;;;4.57;4.27;;;7.30;99.90;;;8.01;93.26;99065.78;10340349;28;20647;-63
2024/02/03 18:13:33;;;;;;;4.80;4.40;;;7.40;99.90;;;8.05;93.26;99084.75;10338516;28;20822;-63
2024/02/03 18:18:37;;;;;;;5.13;4.72;;;7.40;99.90;;;8.23;92.58;99083.78;10339489;28;20234;-64
2024/02/03 18:23:40;;;;;;;3.65;3.35;;;7.50;99.90;;;8.31;91.99;99077.69;10344693;28;20753;-64
2024/02/03 18:28:44;;;;;;;3.45;3.25;;;7.60;99.90;;;8.33;92.24;99073.63;10341751;28;20237;-64
2024/02/03 18:33:48;;;;;;;3.90;3.65;;;7.60;99.90;;;8.31;92.35;99071.72;10345021;28;20234;-63
2024/02/03 18:38:51;;;;;;;3.33;3.13;;;7.60;99.90;;;8.37;92.25;99067.13;10344278;28;20233;-64
2024/02/03 18:43:55;;;;;;;3.83;3.63;;;7.70;99.90;;;8.33;92.00;99070.19;10348814;28;20997;-64
2024/02/03 18:49:00;;;;;;;3.83;3.53;;;7.70;99.90;;;8.37;92.04;99072.22;10349989;28;20226;-64
2024/02/03 18:54:03;;;;;;;10.10;8.18;;;7.70;99.90;;;8.41;91.83;99083.59;10346426;28;20226;-65
2024/02/03 18:59:06;;;;;;;37.35;17.75;;;7.70;99.90;;;8.40;91.26;99076.72;10351777;28;20218;-63
2024/02/03 19:04:12;;;;;;;11.75;8.60;;;7.70;99.90;;;8.39;91.22;99088.59;10346234;28;20226;-64
2024/02/03 19:09:15;;;;;;;6.07;4.60;;;7.70;99.90;;;8.38;91.72;99083.31;10345120;28;20266;-63
2024/02/03 19:14:19;;;;;;;7.10;6.50;;;7.70;99.90;;;8.40;91.38;99081.84;10345575;28;20261;-63
2024/02/03 19:19:24;;;;;;;4.83;4.40;;;7.70;99.90;;;8.45;91.14;99080.56;10345434;28;20721;-64
2024/02/03 19:24:27;;;;;;;4.03;3.83;;;7.70;99.90;;;8.43;91.33;99088.06;10343835;28;21030;-64
2024/02/03 19:29:31;;;;;;;3.95;3.65;;;7.70;99.90;;;8.49;90.54;99088.59;10345021;28;20230;-64
2024/02/03 19:34:35;;;;;;;4.07;3.88;;;7.80;99.90;;;8.45;90.97;99090.75;10345738;28;20271;-64
2024/02/03 19:39:39;;;;;;;3.83;3.53;;;7.70;99.90;;;8.43;91.22;99098.25;10347067;28;20234;-64
2024/02/03 19:44:42;;;;;;;4.40;4.10;;;7.70;99.90;;;8.42;90.73;99093.94;10345141;28;20226;-64
2024/02/03 19:49:47;;;;;;;3.95;3.70;;;7.70;99.90;;;8.59;89.80;99099.59;10349556;28;20749;-64
2024/02/03 19:54:50;;;;;;;4.35;4.05;;;7.90;99.90;;;8.46;90.80;99097.63;10348785;28;20239;-64
2024/02/03 19:59:54;;;;;;;4.68;4.28;;;7.80;99.90;;;8.47;91.33;99090.13;10350827;28;20230;-64
2024/02/03 20:04:58;;;;;;;4.80;4.40;;;7.80;99.90;;;8.41;91.97;99089.59;10345603;28;20233;-63
2024/02/03 20:10:03;;;;;;;5.30;4.90;;;7.80;99.90;;;8.42;91.51;99093.94;10341445;28;20240;-64
2024/02/03 20:15:08;;;;;;;6.25;5.65;;;7.70;99.90;;;8.38;91.95;99088.41;10343204;28;20218;-63
2024/02/03 20:20:13;;;;;;;6.40;5.80;;;7.70;99.90;;;8.38;92.48;99089.28;10342904;28;20234;-64
2024/02/03 20:25:17;;;;;;;6.18;5.60;;;7.70;99.90;;;8.38;92.07;99091.84;10343307;28;20237;-64
2024/02/03 20:30:20;;;;;;;6.22;5.63;;;7.70;99.90;;;8.44;92.34;99086.41;10345529;28;20230;-64
2024/02/03 20:35:29;;;;;;;7.18;6.47;;;7.70;99.90;;;8.42;92.25;99085.41;10348516;28;20594;-64
2024/02/03 20:40:33;;;;;;;6.07;5.57;;;7.70;99.90;;;8.41;92.61;99089.59;10347328;28;20317;-64
2024/02/03 20:45:36;;;;;;;6.55;6.00;;;7.70;99.90;;;8.42;92.59;99076.09;10347398;28;20361;-64
2024/02/03 20:50:43;;;;;;;5.30;4.80;;;7.70;99.90;;;8.47;92.19;99069.75;10351894;28;20555;-64
2024/02/03 20:55:46;;;;;;;20.02;11.70;;;7.70;99.90;;;8.49;91.60;99063.09;10344688;28;20321;-64
2024/02/03 21:00:50;;;;;;;5.13;4.72;;;7.70;99.90;;;8.55;91.59;99066.16;10347521;28;20226;-64
2024/02/03 21:05:57;;;;;;;4.22;3.92;;;7.70;99.90;;;8.44;92.02;99061.84;10343835;28;20369;-64
2024/02/03 21:11:00;;;;;;;4.30;4.00;;;7.70;99.90;;;8.51;91.59;99031.00;10345586;28;20230;-64
2024/02/03 21:16:04;;;;;;;3.93;3.63;;;7.70;99.90;;;8.65;90.82;99028.75;10345425;28;20237;-65
2024/02/03 21:21:09;;;;;;;3.38;3.10;;;7.80;99.90;;;8.45;91.78;99047.44;10344617;28;20234;-64
2024/02/03 21:26:14;;;;;;;3.42;3.22;;;7.70;99.90;;;8.40;91.92;99047.06;10343316;28;20223;-64